Warren, Arkansas
Current Conditions -  °F | °C
As of 12:53 PM on Thursday 18 Dec 2014 (Local Time) from KLLQ Reporting Station
Overcast Overcast  
Wind Chill: 48°   Ceiling: 900
Heat Index: 48°   Visibility: 10mi
Dew Point: 44°   Wind: 3mph
Humidity: 86%   Direction: 70°ENE
Pressure: 30.16"   Gusts: NA
Location:  33.61°N, 92.06°W
Report Text: KLLQ 181853Z AUTO 07003KT 10SM OVC009 09/07 A3016 RMK AO2 SLP215 T00890067
Loading
Personal Weather Stations






























Interactive Weather Map New forecast layout! Learn more

10-Day Weather Forecast

Advertisements
Track Severe Weather on mobile